Weather at Carlisle Municipal Airport

Public forecast

Using degrees Fahrenheit for public forecast. Weather courtesy of forecast.io.

Closest aviation weather report (METAR) to Carlisle Municipal Airport

Closest report is Stuttgart Municipal Airport / Carl Humphrey Field, 14.2 nm (26.4 km) SSE. Retrieved 2020/09/21 17:56 UTC (9 minutes ago):

KSGT 211756Z AUTO 09008KT 10SM OVC025 22/14 A3024 RMK AO2 SLP241 T02170144 10222 20167 58008

Closest aviation forecast (TAF) to Carlisle Municipal Airport

Closest forecast is Little Rock Air Force Base, 22.5 nm (41.7 km) WNW. Retrieved 2020/09/21 15:15 UTC (3 hours ago):

TAF TAF KLRF 211502Z 2115/2221 10010G15KT 9999 FEW080 QNH3013INS BECMG 2200/2201 VRB06KT 9999 SCT030 BKN080 QNH3016INS BECMG 2204/2205 08004KT 9000 RA SCT040 BKN070 QNH3016INS BECMG 2207/2208 07003KT 4800 RA SCT050 BKN060 QNH3015INS BECMG 2212/2213 06004KT 8000 RA SCT040 BKN050 QNH3015INS BECMG 2219/2220 04007KT 9999 NSW BKN050 QNH3012INS TX23/2119Z TN17/2214Z